createdAt,value
2022-10-03T00:01:31.399Z,11.19
2022-10-03T00:06:38.577Z,10.29
2022-10-03T00:11:45.883Z,10.65
2022-10-03T00:16:53.077Z,10.65
2022-10-03T00:22:00.375Z,10.29
2022-10-03T00:27:07.589Z,10.29
2022-10-03T00:32:14.759Z,10.65
2022-10-03T00:37:21.989Z,10.65
2022-10-03T00:42:29.163Z,10.65
2022-10-03T00:47:36.390Z,10.65
2022-10-03T00:52:43.624Z,10.65
2022-10-03T00:57:50.827Z,10.65
2022-10-03T01:02:57.996Z,10.65
2022-10-03T01:08:05.213Z,10.65
2022-10-03T01:13:12.457Z,10.65
2022-10-03T01:18:19.623Z,10.65
2022-10-03T01:23:26.852Z,10.65
2022-10-03T01:28:34.071Z,9.74
2022-10-03T01:33:41.211Z,9.74
2022-10-03T01:38:48.429Z,9.74
2022-10-03T01:43:55.746Z,9.74
2022-10-03T01:49:02.960Z,9.74
2022-10-03T01:54:10.139Z,9.74
2022-10-03T01:59:17.480Z,10.09
2022-10-03T02:04:24.657Z,10.09
2022-10-03T02:09:31.905Z,10.09
2022-10-03T02:14:39.099Z,10.09
2022-10-03T02:19:46.274Z,10.09
2022-10-03T02:24:53.477Z,10.09
2022-10-03T02:30:00.708Z,10.09
2022-10-03T02:35:07.877Z,10.09
2022-10-03T02:40:15.111Z,10.09
2022-10-03T02:45:22.473Z,10.09
2022-10-03T02:50:29.659Z,10.09
2022-10-03T02:55:36.920Z,10.09
2022-10-03T03:00:44.250Z,10.09
2022-10-03T03:05:51.359Z,10.09
2022-10-03T03:10:58.515Z,10.09
2022-10-03T03:16:05.847Z,10.09
2022-10-03T03:21:12.948Z,10.09
2022-10-03T03:26:20.445Z,10.09
2022-10-03T03:31:27.723Z,10.09
2022-10-03T03:36:34.868Z,10.09
2022-10-03T03:41:42.588Z,10.09
2022-10-03T03:46:49.400Z,10.09
2022-10-03T03:51:56.566Z,10.09
2022-10-03T03:57:03.832Z,9.74
2022-10-03T04:02:11.116Z,9.74
2022-10-03T04:07:21.656Z,9.74
2022-10-03T04:12:25.796Z,9.74
2022-10-03T04:17:33.088Z,9.74
2022-10-03T04:22:40.445Z,9.74
2022-10-03T04:27:47.772Z,10.09
2022-10-03T04:32:55.039Z,9.74
2022-10-03T04:38:02.463Z,9.74
2022-10-03T04:43:09.644Z,9.74
2022-10-03T04:48:16.872Z,9.74
2022-10-03T04:53:24.082Z,9.74
2022-10-03T04:58:31.314Z,9.74
2022-10-03T05:03:38.580Z,9.74
2022-10-03T05:08:45.765Z,9.74
2022-10-03T05:13:52.997Z,9.74
2022-10-03T05:19:00.203Z,9.74
2022-10-03T05:24:07.382Z,9.74
2022-10-03T05:29:14.604Z,9.74
2022-10-03T05:34:21.906Z,9.74
2022-10-03T05:39:29.017Z,9.74
2022-10-03T05:44:36.266Z,9.74
2022-10-03T05:49:43.521Z,9.74
2022-10-03T05:54:50.735Z,9.74
2022-10-03T05:59:57.933Z,9.74
2022-10-03T06:05:05.162Z,9.74
2022-10-03T06:10:12.360Z,9.74
2022-10-03T06:15:19.613Z,9.74
2022-10-03T06:20:27.108Z,9.74
2022-10-03T06:25:34.321Z,9.74
2022-10-03T06:30:41.615Z,8.84
2022-10-03T06:35:48.861Z,9.74
2022-10-03T06:40:56.064Z,9.74
2022-10-03T06:46:03.567Z,9.74
2022-10-03T06:51:10.721Z,9.74
2022-10-03T06:56:17.858Z,9.74
2022-10-03T07:01:26.408Z,9.74
2022-10-03T07:06:33.574Z,9.74
2022-10-03T07:11:41.141Z,9.74
2022-10-03T07:16:48.034Z,9.74
2022-10-03T07:21:55.313Z,9.74
2022-10-03T07:27:02.551Z,9.74
2022-10-03T07:32:09.800Z,9.74
2022-10-03T07:37:17.031Z,9.74
2022-10-03T07:42:24.737Z,9.74
2022-10-03T07:47:31.981Z,9.74
2022-10-03T07:52:39.228Z,8.84
2022-10-03T07:57:46.404Z,8.84
2022-10-03T08:02:53.677Z,8.84
2022-10-03T08:08:00.804Z,8.84
2022-10-03T08:13:08.081Z,8.84
2022-10-03T08:18:16.642Z,8.84
2022-10-03T08:23:24.281Z,8.84
2022-10-03T08:28:31.482Z,8.84
2022-10-03T08:33:38.649Z,9.52
2022-10-03T08:38:45.887Z,9.18
2022-10-03T08:43:53.084Z,9.18
2022-10-03T08:49:00.297Z,8.84
2022-10-03T08:54:07.550Z,8.84
2022-10-03T08:59:14.705Z,8.84
2022-10-03T09:04:21.943Z,8.84
2022-10-03T09:09:32.092Z,8.84
2022-10-03T09:14:36.376Z,8.84
2022-10-03T09:19:43.646Z,8.84
2022-10-03T09:24:50.894Z,8.84
2022-10-03T09:29:58.053Z,9.18
2022-10-03T09:35:07.379Z,8.84
2022-10-03T09:40:12.418Z,10.09
2022-10-03T09:45:19.583Z,9.74
2022-10-03T09:50:26.830Z,8.84
2022-10-03T09:55:34.379Z,8.84
2022-10-03T10:00:41.358Z,8.84
2022-10-03T10:05:48.590Z,8.84
2022-10-03T10:10:55.933Z,8.84
2022-10-03T10:16:03.204Z,8.84
2022-10-03T10:21:10.358Z,8.14
2022-10-03T10:26:17.559Z,8.49
2022-10-03T10:31:27.445Z,8.49
2022-10-03T10:36:34.502Z,8.49
2022-10-03T10:41:42.034Z,8.49
2022-10-03T10:46:49.024Z,8.84
2022-10-03T10:51:56.284Z,8.49
2022-10-03T10:57:03.560Z,8.49
2022-10-03T11:02:10.757Z,8.49
2022-10-03T11:07:18.002Z,8.49
2022-10-03T11:12:25.266Z,8.49
2022-10-03T11:17:32.479Z,8.49
2022-10-03T11:22:39.700Z,8.49
2022-10-03T11:27:46.918Z,8.14
2022-10-03T11:32:54.094Z,8.49
2022-10-03T11:38:01.250Z,9.39
2022-10-03T11:43:08.530Z,8.14
2022-10-03T11:48:15.713Z,9.03
2022-10-03T11:53:22.915Z,9.03
2022-10-03T11:58:30.102Z,9.03
2022-10-03T12:03:37.510Z,8.14
2022-10-03T12:08:44.653Z,8.14
2022-10-03T12:13:51.906Z,9.39
2022-10-03T12:18:59.063Z,9.39
2022-10-03T12:24:06.346Z,9.39
2022-10-03T12:29:13.968Z,9.03
2022-10-03T12:34:21.180Z,8.14
2022-10-03T12:39:28.379Z,8.14
2022-10-03T12:44:35.637Z,7.77
2022-10-03T12:49:42.852Z,8.14
2022-10-03T12:54:50.080Z,8.14
2022-10-03T12:59:57.326Z,8.14
2022-10-03T13:05:04.527Z,8.14
2022-10-03T13:10:11.798Z,8.14
2022-10-03T13:15:19.049Z,8.14
2022-10-03T13:20:26.222Z,8.14
2022-10-03T13:25:33.446Z,8.14
2022-10-03T13:30:40.818Z,8.14
2022-10-03T13:35:47.935Z,9.03
2022-10-03T13:40:55.163Z,9.03
2022-10-03T13:46:02.580Z,9.39
2022-10-03T13:51:09.650Z,9.39
2022-10-03T13:56:16.864Z,9.03
2022-10-03T14:01:25.775Z,9.03
2022-10-03T14:06:37.417Z,8.67
2022-10-03T14:11:40.542Z,9.03
2022-10-03T14:16:47.462Z,9.03
2022-10-03T14:21:54.637Z,9.03
2022-10-03T14:27:01.830Z,9.03
2022-10-03T14:32:22.752Z,9.03
2022-10-03T14:37:16.268Z,9.03
2022-10-03T14:42:23.445Z,8.67
2022-10-03T14:47:30.736Z,9.03
2022-10-03T14:52:38.256Z,9.03
2022-10-03T14:58:06.002Z,9.03
2022-10-03T15:02:52.922Z,9.03
2022-10-03T15:08:00.025Z,9.03
2022-10-03T15:13:07.245Z,9.03
2022-10-03T15:18:14.784Z,9.03
2022-10-03T15:23:21.985Z,9.03
2022-10-03T15:28:29.321Z,9.03
2022-10-03T15:33:36.444Z,9.03
2022-10-03T15:38:43.690Z,9.03
2022-10-03T15:43:51.029Z,9.03
2022-10-03T15:48:58.348Z,9.03
2022-10-03T15:54:05.584Z,9.03
2022-10-03T15:59:13.064Z,9.03
2022-10-03T16:04:20.289Z,9.03
2022-10-03T16:09:27.538Z,9.03
2022-10-03T16:14:34.835Z,9.03
2022-10-03T16:19:42.067Z,9.03
2022-10-03T16:24:49.303Z,9.03
2022-10-03T16:29:56.501Z,9.03
2022-10-03T16:35:03.794Z,9.03
2022-10-03T16:40:10.895Z,9.03
2022-10-03T16:45:18.157Z,9.39
2022-10-03T16:50:25.419Z,9.39
2022-10-03T16:55:32.648Z,9.39
2022-10-03T17:00:40.344Z,9.39
2022-10-03T17:05:47.546Z,9.39
2022-10-03T17:10:54.724Z,9.39
2022-10-03T17:16:01.983Z,8.49
2022-10-03T17:21:09.176Z,8.49
2022-10-03T17:26:16.345Z,8.49
2022-10-03T17:31:23.634Z,8.49
2022-10-03T17:36:30.817Z,8.49
2022-10-03T17:41:38.500Z,8.49
2022-10-03T17:46:45.263Z,8.49
2022-10-03T17:51:52.501Z,8.49
2022-10-03T17:56:59.679Z,8.49
2022-10-03T18:02:06.946Z,8.49
2022-10-03T18:07:14.417Z,8.49
2022-10-03T18:12:21.788Z,8.49
2022-10-03T18:17:29.313Z,8.49
2022-10-03T18:22:40.719Z,8.49
2022-10-03T18:27:44.062Z,8.49
2022-10-03T18:32:51.534Z,8.49
2022-10-03T18:37:59.178Z,8.49
2022-10-03T18:43:06.584Z,8.49
2022-10-03T18:48:14.070Z,8.49
2022-10-03T18:53:22.326Z,8.49
2022-10-03T18:58:29.742Z,8.84
2022-10-03T19:03:36.998Z,8.84
2022-10-03T19:08:44.145Z,8.84
2022-10-03T19:13:54.095Z,8.84
2022-10-03T19:18:58.941Z,8.84
2022-10-03T19:24:06.372Z,8.84
2022-10-03T19:29:13.544Z,8.84
2022-10-03T19:34:20.743Z,8.84
2022-10-03T19:39:28.054Z,8.84
2022-10-03T19:44:35.310Z,8.84
2022-10-03T19:49:42.499Z,8.84
2022-10-03T19:54:49.727Z,8.84
2022-10-03T19:59:56.897Z,9.74
2022-10-03T20:05:04.128Z,9.74
2022-10-03T20:10:11.344Z,9.74
2022-10-03T20:15:18.537Z,9.74
2022-10-03T20:20:25.779Z,9.74
2022-10-03T20:25:32.982Z,9.74
2022-10-03T20:30:40.130Z,9.74
2022-10-03T20:35:47.319Z,9.74
2022-10-03T20:40:54.594Z,9.74
2022-10-03T20:46:01.885Z,9.74
2022-10-03T20:51:09.036Z,9.74
2022-10-03T20:56:16.294Z,9.39
2022-10-03T21:01:23.517Z,9.39
2022-10-03T21:06:30.698Z,9.39
2022-10-03T21:11:38.216Z,10.29
2022-10-03T21:16:45.072Z,10.29
2022-10-03T21:21:52.283Z,10.29
2022-10-03T21:26:59.530Z,10.29
2022-10-03T21:32:06.724Z,10.29
2022-10-03T21:37:13.849Z,10.29
2022-10-03T21:42:21.131Z,10.29
2022-10-03T21:47:28.313Z,10.29
2022-10-03T21:52:35.519Z,10.29
2022-10-03T21:57:42.802Z,10.29
2022-10-03T22:02:50.052Z,9.93
2022-10-03T22:07:57.305Z,9.93
2022-10-03T22:13:04.592Z,9.93
2022-10-03T22:18:11.734Z,9.93
2022-10-03T22:23:18.944Z,9.93
2022-10-03T22:28:26.335Z,9.93
2022-10-03T22:33:33.487Z,9.93
2022-10-03T22:38:40.676Z,9.93
2022-10-03T22:43:47.896Z,9.93
2022-10-03T22:48:55.068Z,9.93
2022-10-03T22:54:02.294Z,9.93
2022-10-03T22:59:09.514Z,9.56
2022-10-03T23:04:16.842Z,9.56
2022-10-03T23:09:24.024Z,9.56
2022-10-03T23:14:32.235Z,9.56
2022-10-03T23:19:39.430Z,9.56
2022-10-03T23:24:46.627Z,9.56
2022-10-03T23:29:53.911Z,9.56
2022-10-03T23:35:01.027Z,9.56
2022-10-03T23:40:08.236Z,9.56
2022-10-03T23:45:15.479Z,9.56
2022-10-03T23:50:22.734Z,9.56
2022-10-03T23:55:29.899Z,9.56
